PTKK

Details ICAO PTKK (TKK)
Name Chuuk Airport
Region Federated States of Micronesia, Palau
Timezone Pacific/Chuuk (UTC+10.0)
Plans Departing 62
Arriving 71
Stats Elevation 11 ft / 3 m (AMSL)
Location 7.461910° 151.843000°
Runways 1
Magnetic Variation 3.977° E
Sunrise 2019-11-21 19:47:20 UTC / 2019-11-22 05:47:20 Local
Sunset 2019-11-22 07:32:41 UTC / 2019-11-22 17:32:41 Local
Advertisement - Login to hide

Runways

ID Width Length Bearing (true/mag) Surface Threshold Overrun Markings Lighting
04 151 ft / 46 m 6,019 ft / 1,835 m 45.83° / 41.85° ASPHALT 0 ft / 0 m 190 ft / 58 m PREC-APP EDGE THRESHOLD REIL-OMNI
22 151 ft / 46 m 6,019 ft / 1,835 m 225.83° / 221.85° ASPHALT 0 ft / 0 m 184 ft / 56 m PREC-APP EDGE THRESHOLD REIL-OMNI

Map

Weather


0- 5 10 15 20 25 30 35+ Temperature / °C

Clouds and Precipitation
Forecast for 2019-11-21 18:00 UTC. Updated 3 hours ago

Ground ~20,000 ft ~40,000 ft Winds

METAR

PTKK 211750Z 04007KT 15SM FEW014 BKN120 OVC280 29/26 A2974 RMK SLP072 8/128 T02870262 10287 20277 56007

TAF

TAF PTKK 211734Z 2118/2218 06015KT P6SM VCSH SCT014 SCT060 SCT120 TEMPO 2121/2123 4SM SHRA BKN020

Frequencies

Unicom 123.60 MHz CTAF
Warning: Do not use this data for real-world aviation or navigation. No guarantee of current accuracy is given.